createdAt,value
2022-12-11T00:01:27.144Z,0.79
2022-12-11T00:03:53.828Z,0.75
2022-12-11T00:06:23.177Z,0.76
2022-12-11T00:08:54.762Z,0.76
2022-12-11T00:11:22.590Z,0.77
2022-12-11T00:13:49.109Z,0.79
2022-12-11T00:16:16.028Z,0.80
2022-12-11T00:18:42.596Z,0.81
2022-12-11T00:21:13.149Z,0.80
2022-12-11T00:23:40.359Z,0.80
2022-12-11T00:26:14.184Z,0.82
2022-12-11T00:28:41.820Z,0.81
2022-12-11T00:31:12.775Z,0.82
2022-12-11T00:33:39.249Z,0.79
2022-12-11T00:36:12.773Z,0.80
2022-12-11T00:38:39.735Z,0.80
2022-12-11T00:41:06.358Z,0.80
2022-12-11T00:43:32.787Z,0.81
2022-12-11T00:45:59.296Z,0.85
2022-12-11T00:48:25.727Z,0.87
2022-12-11T00:50:52.183Z,0.87
2022-12-11T00:53:18.636Z,0.86
2022-12-11T00:55:45.096Z,0.87
2022-12-11T00:58:12.213Z,0.89
2022-12-11T01:00:39.759Z,0.89
2022-12-11T01:03:06.817Z,0.90
2022-12-11T01:05:34.168Z,0.90
2022-12-11T01:08:00.882Z,0.91
2022-12-11T01:10:27.554Z,0.90
2022-12-11T01:13:05.196Z,0.92
2022-12-11T01:15:41.511Z,0.91
2022-12-11T01:18:09.557Z,0.90
2022-12-11T01:20:39.892Z,0.90
2022-12-11T01:23:06.976Z,0.89
2022-12-11T01:25:38.167Z,0.91
2022-12-11T01:28:05.934Z,0.93
2022-12-11T01:30:36.579Z,0.94
2022-12-11T01:33:03.565Z,0.94
2022-12-11T01:35:29.988Z,0.92
2022-12-11T01:37:56.821Z,0.93
2022-12-11T01:40:23.718Z,0.92
2022-12-11T01:42:50.591Z,0.93
2022-12-11T01:45:29.209Z,0.94
2022-12-11T01:48:02.246Z,0.94
2022-12-11T01:50:32.455Z,0.94
2022-12-11T01:52:59.101Z,0.95
2022-12-11T01:55:25.705Z,0.93
2022-12-11T01:57:53.082Z,0.94
2022-12-11T02:00:20.559Z,0.95
2022-12-11T02:02:47.089Z,0.95
2022-12-11T02:05:13.741Z,0.94
2022-12-11T02:07:46.535Z,0.94
2022-12-11T02:10:13.676Z,0.97
2022-12-11T02:13:07.788Z,0.98
2022-12-11T02:15:47.091Z,0.97
2022-12-11T02:18:42.175Z,0.99
2022-12-11T02:21:24.345Z,0.99
2022-12-11T02:24:26.102Z,1.00
2022-12-11T02:27:11.567Z,0.99
2022-12-11T02:29:45.955Z,0.98
2022-12-11T02:32:23.892Z,1.01
2022-12-11T02:34:57.854Z,1.03
2022-12-11T02:37:29.481Z,1.04
2022-12-11T02:39:57.074Z,1.05
2022-12-11T02:42:28.270Z,1.05
2022-12-11T02:44:57.042Z,1.06
2022-12-11T02:47:28.325Z,1.04
2022-12-11T02:49:55.795Z,1.05
2022-12-11T02:52:25.458Z,1.06
2022-12-11T02:54:58.049Z,1.10
2022-12-11T02:57:33.308Z,1.12
2022-12-11T02:59:59.820Z,1.10
2022-12-11T03:02:26.690Z,1.09
2022-12-11T03:04:53.932Z,1.09
2022-12-11T03:07:27.306Z,1.11
2022-12-11T03:09:54.426Z,1.12
2022-12-11T03:12:27.546Z,1.14
2022-12-11T03:14:54.322Z,1.13
2022-12-11T03:17:30.704Z,1.12
2022-12-11T03:20:09.599Z,1.14
2022-12-11T03:22:58.439Z,1.15
2022-12-11T03:25:38.188Z,1.17
2022-12-11T03:28:12.875Z,1.18
2022-12-11T03:30:41.398Z,1.19
2022-12-11T03:33:25.683Z,1.19
2022-12-11T03:35:56.652Z,1.21
2022-12-11T03:38:34.289Z,1.20
2022-12-11T03:41:03.417Z,1.24
2022-12-11T03:43:32.031Z,1.28
2022-12-11T03:45:59.852Z,1.26
2022-12-11T03:48:31.446Z,1.29
2022-12-11T03:50:59.221Z,1.30
2022-12-11T03:53:27.262Z,1.27
2022-12-11T03:55:56.147Z,1.24
2022-12-11T03:58:22.642Z,1.25
2022-12-11T04:00:49.112Z,1.25
2022-12-11T04:03:16.080Z,1.25
2022-12-11T04:05:48.175Z,1.24
2022-12-11T04:08:15.379Z,1.25
2022-12-11T04:10:43.426Z,1.24
2022-12-11T04:13:10.495Z,1.25
2022-12-11T04:15:38.441Z,1.25
2022-12-11T04:18:24.595Z,1.25
2022-12-11T04:21:12.440Z,1.23
2022-12-11T04:23:57.120Z,1.23
2022-12-11T04:26:23.573Z,1.22
2022-12-11T04:28:51.111Z,1.20
2022-12-11T04:31:20.028Z,1.19
2022-12-11T04:33:47.224Z,1.20
2022-12-11T04:36:14.287Z,1.19
2022-12-11T04:38:41.160Z,1.17
2022-12-11T04:41:13.628Z,1.17
2022-12-11T04:43:40.782Z,1.17
2022-12-11T04:46:13.451Z,1.19
2022-12-11T04:48:40.438Z,1.18
2022-12-11T04:51:07.251Z,1.18
2022-12-11T04:53:34.456Z,1.19
2022-12-11T04:56:01.131Z,1.20
2022-12-11T04:58:28.336Z,1.16
2022-12-11T05:00:54.733Z,1.16
2022-12-11T05:03:21.291Z,1.17
2022-12-11T05:05:52.649Z,1.16
2022-12-11T05:08:20.999Z,1.17
2022-12-11T05:11:06.024Z,1.18
2022-12-11T05:13:32.761Z,1.19
2022-12-11T05:15:59.553Z,1.19
2022-12-11T05:18:26.283Z,1.18
2022-12-11T05:21:00.974Z,1.19
2022-12-11T05:23:28.440Z,1.21
2022-12-11T05:26:01.737Z,1.18
2022-12-11T05:28:30.339Z,1.17
2022-12-11T05:30:58.609Z,1.16
2022-12-11T05:33:25.879Z,1.14
2022-12-11T05:35:52.405Z,1.13
2022-12-11T05:38:19.323Z,1.12
2022-12-11T05:40:45.765Z,1.16
2022-12-11T05:43:12.247Z,1.15
2022-12-11T05:45:38.873Z,1.14
2022-12-11T05:48:05.728Z,1.11
2022-12-11T05:50:32.957Z,1.10
2022-12-11T05:52:59.452Z,1.09
2022-12-11T05:55:25.922Z,1.06
2022-12-11T05:57:52.506Z,1.05
2022-12-11T06:00:21.822Z,1.04
2022-12-11T06:02:48.421Z,1.05
2022-12-11T06:05:15.076Z,1.05
2022-12-11T06:07:42.733Z,1.04
2022-12-11T06:10:09.720Z,1.06
2022-12-11T06:12:36.230Z,1.04
2022-12-11T06:15:03.126Z,1.03
2022-12-11T06:17:29.785Z,1.02
2022-12-11T06:19:56.241Z,1.05
2022-12-11T06:22:22.676Z,1.04
2022-12-11T06:24:49.092Z,1.01
2022-12-11T06:27:15.740Z,1.01
2022-12-11T06:29:44.204Z,1.01
2022-12-11T06:32:10.606Z,0.98
2022-12-11T06:34:37.052Z,0.98
2022-12-11T06:37:03.732Z,0.99
2022-12-11T06:39:30.155Z,0.98
2022-12-11T06:41:56.632Z,1.00
2022-12-11T06:44:23.070Z,0.99
2022-12-11T06:46:49.528Z,1.00
2022-12-11T06:49:16.210Z,0.99
2022-12-11T06:51:42.641Z,1.00
2022-12-11T06:54:09.036Z,0.99
2022-12-11T06:56:36.305Z,1.00
2022-12-11T06:59:07.104Z,0.99
2022-12-11T07:01:34.051Z,0.98
2022-12-11T07:04:06.320Z,0.99
2022-12-11T07:06:32.819Z,0.99
2022-12-11T07:08:59.428Z,1.00
2022-12-11T07:11:25.912Z,0.98
2022-12-11T07:13:52.398Z,0.97
2022-12-11T07:16:19.257Z,0.94
2022-12-11T07:18:51.396Z,0.94
2022-12-11T07:21:19.624Z,0.94
2022-12-11T07:23:46.924Z,0.94
2022-12-11T07:26:16.907Z,0.94
2022-12-11T07:28:44.308Z,0.96
2022-12-11T07:31:19.798Z,0.99
2022-12-11T07:33:47.299Z,1.00
2022-12-11T07:36:15.026Z,1.00
2022-12-11T07:38:42.067Z,1.00
2022-12-11T07:41:11.864Z,0.99
2022-12-11T07:43:38.915Z,0.98
2022-12-11T07:46:15.418Z,0.94
2022-12-11T07:48:44.084Z,0.98
2022-12-11T07:51:16.549Z,0.99
2022-12-11T07:53:47.964Z,1.00
2022-12-11T07:56:15.721Z,0.99
2022-12-11T07:58:44.770Z,0.98
2022-12-11T08:01:13.540Z,1.00
2022-12-11T08:03:40.084Z,0.99
2022-12-11T08:06:06.781Z,0.99
2022-12-11T08:08:33.355Z,0.96
2022-12-11T08:11:08.137Z,0.96
2022-12-11T08:13:35.275Z,0.91
2022-12-11T08:16:06.176Z,0.89
2022-12-11T08:18:34.228Z,0.85
2022-12-11T08:21:05.860Z,0.83
2022-12-11T08:23:32.428Z,0.85
2022-12-11T08:25:58.901Z,0.86
2022-12-11T08:28:27.298Z,0.85
2022-12-11T08:30:54.070Z,0.85
2022-12-11T08:33:25.265Z,0.86
2022-12-11T08:35:51.865Z,0.86
2022-12-11T08:38:23.672Z,0.86
2022-12-11T08:40:51.778Z,0.83
2022-12-11T08:43:18.338Z,0.82
2022-12-11T08:45:46.784Z,0.81
2022-12-11T08:48:14.515Z,0.83
2022-12-11T08:50:41.002Z,0.82
2022-12-11T08:53:07.640Z,0.79
2022-12-11T08:55:34.073Z,0.80
2022-12-11T08:58:00.573Z,0.80
2022-12-11T09:00:29.607Z,0.80
2022-12-11T09:02:56.068Z,0.81
2022-12-11T09:05:22.838Z,0.81
2022-12-11T09:07:49.433Z,0.82
2022-12-11T09:10:15.954Z,0.85
2022-12-11T09:12:42.758Z,0.88
2022-12-11T09:15:09.865Z,0.90
2022-12-11T09:17:36.810Z,0.96
2022-12-11T09:20:04.115Z,1.00
2022-12-11T09:22:33.532Z,1.03
2022-12-11T09:25:00.036Z,1.06
2022-12-11T09:27:26.676Z,1.10
2022-12-11T09:29:53.083Z,1.14
2022-12-11T09:32:19.561Z,1.22
2022-12-11T09:34:46.122Z,1.22
2022-12-11T09:37:12.840Z,1.24
2022-12-11T09:39:39.404Z,1.29
2022-12-11T09:42:18.841Z,1.27
2022-12-11T09:44:50.960Z,1.29
2022-12-11T09:47:28.943Z,1.31
2022-12-11T09:50:06.432Z,1.29
2022-12-11T09:52:37.875Z,1.29
2022-12-11T09:55:15.009Z,1.31
2022-12-11T09:58:09.297Z,1.36
2022-12-11T10:00:48.112Z,1.43
2022-12-11T10:03:42.937Z,1.45
2022-12-11T10:06:17.251Z,1.48
2022-12-11T10:08:55.574Z,1.48
2022-12-11T10:11:31.138Z,1.48
2022-12-11T10:14:31.334Z,1.51
2022-12-11T10:17:02.865Z,1.54
2022-12-11T10:19:32.005Z,1.59
2022-12-11T10:22:01.151Z,1.63
2022-12-11T10:27:32.265Z,1.63
2022-12-11T10:30:12.653Z,1.65
2022-12-11T10:32:59.340Z,1.70
2022-12-11T10:36:10.036Z,1.71
2022-12-11T10:38:43.909Z,1.71
2022-12-11T10:41:13.820Z,1.67
2022-12-11T10:43:43.392Z,1.69
2022-12-11T10:46:22.284Z,1.70
2022-12-11T10:48:57.489Z,1.69
2022-12-11T10:51:41.947Z,1.72
2022-12-11T10:54:38.590Z,1.77
2022-12-11T10:57:08.356Z,1.81
2022-12-11T10:59:47.976Z,1.81
2022-12-11T11:02:31.125Z,1.79
2022-12-11T11:05:00.229Z,1.79
2022-12-11T11:07:29.919Z,1.81
2022-12-11T11:10:15.460Z,1.85
2022-12-11T11:12:48.082Z,1.92
2022-12-11T11:15:32.935Z,1.93
2022-12-11T11:18:12.758Z,1.94
2022-12-11T11:20:47.422Z,1.93
2022-12-11T11:23:15.937Z,1.89
2022-12-11T11:25:52.008Z,1.93
2022-12-11T11:28:22.629Z,1.94
2022-12-11T11:30:59.729Z,1.98
2022-12-11T11:33:29.501Z,2.01
2022-12-11T11:35:59.211Z,2.02
2022-12-11T11:38:31.627Z,2.04
2022-12-11T11:41:15.305Z,2.06
2022-12-11T11:44:02.488Z,2.09
2022-12-11T11:46:55.376Z,2.14
2022-12-11T11:49:31.490Z,2.14
2022-12-11T11:52:11.113Z,2.16
2022-12-11T11:54:57.843Z,2.15
2022-12-11T11:57:35.613Z,2.18
2022-12-11T12:00:16.610Z,2.15
2022-12-11T12:02:43.589Z,2.15
2022-12-11T12:05:13.859Z,2.12
2022-12-11T12:07:47.878Z,2.13
2022-12-11T12:10:20.496Z,2.14
2022-12-11T12:13:14.350Z,2.12
2022-12-11T12:15:58.476Z,2.11
2022-12-11T12:18:35.408Z,2.13
2022-12-11T12:21:18.873Z,2.17
2022-12-11T12:24:05.502Z,2.16
2022-12-11T12:26:39.018Z,2.14
2022-12-11T12:29:05.639Z,2.10
2022-12-11T12:32:09.584Z,2.07
2022-12-11T12:34:52.910Z,2.11
2022-12-11T12:37:46.529Z,2.07
2022-12-11T12:41:00.934Z,2.14
2022-12-11T12:44:05.207Z,2.14
2022-12-11T12:46:43.702Z,2.14
2022-12-11T12:49:17.448Z,2.16
2022-12-11T12:51:44.999Z,2.17
2022-12-11T12:54:17.329Z,2.14
2022-12-11T12:56:46.938Z,2.17
2022-12-11T12:59:22.405Z,2.20
2022-12-11T13:01:57.086Z,2.15
2022-12-11T13:04:58.293Z,2.12
2022-12-11T13:07:30.882Z,2.14
2022-12-11T13:10:04.578Z,2.14
2022-12-11T13:12:54.977Z,2.12
2022-12-11T13:15:27.517Z,2.14
2022-12-11T13:17:54.271Z,2.14
2022-12-11T13:20:23.716Z,2.13
2022-12-11T13:23:08.764Z,2.15
2022-12-11T13:25:52.732Z,2.18
2022-12-11T13:28:48.149Z,2.17
2022-12-11T13:31:14.597Z,2.19
2022-12-11T13:33:49.891Z,2.15
2022-12-11T13:36:53.149Z,2.11
2022-12-11T13:39:23.892Z,2.11
2022-12-11T13:42:11.866Z,2.12
2022-12-11T13:44:42.405Z,2.09
2022-12-11T13:47:15.486Z,2.04
2022-12-11T13:49:44.178Z,2.02
2022-12-11T13:52:22.892Z,2.04
2022-12-11T13:54:52.701Z,2.02
2022-12-11T13:57:25.707Z,2.01
2022-12-11T13:59:54.322Z,1.97
2022-12-11T14:02:31.887Z,1.94
2022-12-11T14:05:02.306Z,1.89
2022-12-11T14:07:32.927Z,1.86
2022-12-11T14:10:03.808Z,1.86
2022-12-11T14:12:31.127Z,1.82
2022-12-11T14:15:01.911Z,1.79
2022-12-11T14:17:31.756Z,1.82
2022-12-11T14:20:00.675Z,1.81
2022-12-11T14:22:29.751Z,1.81
2022-12-11T14:24:59.139Z,1.83
2022-12-11T14:27:27.629Z,1.82
2022-12-11T14:29:54.683Z,1.86
2022-12-11T14:32:44.870Z,1.86
2022-12-11T14:35:24.321Z,1.86
2022-12-11T14:37:52.380Z,1.85
2022-12-11T14:40:22.962Z,1.83
2022-12-11T14:43:01.158Z,1.86
2022-12-11T14:45:36.944Z,1.87
2022-12-11T14:48:20.202Z,1.87
2022-12-11T14:50:53.623Z,1.88
2022-12-11T14:53:35.624Z,1.86
2022-12-11T14:56:06.401Z,1.85
2022-12-11T14:58:37.868Z,1.82
2022-12-11T15:01:06.911Z,1.80
2022-12-11T15:03:38.527Z,1.79
2022-12-11T15:06:30.550Z,1.75
2022-12-11T15:08:57.018Z,1.75
2022-12-11T15:11:30.442Z,1.76
2022-12-11T15:13:59.681Z,1.77
2022-12-11T15:16:29.336Z,1.79
2022-12-11T15:18:56.730Z,1.81
2022-12-11T15:21:32.347Z,1.80
2022-12-11T15:24:01.470Z,1.81
2022-12-11T15:26:44.013Z,1.82
2022-12-11T15:29:39.711Z,1.82
2022-12-11T15:32:09.195Z,1.84
2022-12-11T15:34:50.726Z,1.80
2022-12-11T15:37:38.446Z,1.78
2022-12-11T15:40:05.400Z,1.78
2022-12-11T15:42:36.575Z,1.77
2022-12-11T15:45:05.391Z,1.80
2022-12-11T15:47:32.637Z,1.78
2022-12-11T15:50:02.018Z,1.74
2022-12-11T15:52:28.673Z,1.73
2022-12-11T15:54:55.153Z,1.74
2022-12-11T15:57:23.982Z,1.75
2022-12-11T15:59:53.074Z,1.72
2022-12-11T16:02:19.627Z,1.70
2022-12-11T16:04:46.215Z,1.71
2022-12-11T16:07:22.175Z,1.71
2022-12-11T16:09:49.061Z,1.66
2022-12-11T16:12:16.255Z,1.64
2022-12-11T16:14:44.645Z,1.64
2022-12-11T16:17:13.125Z,1.63
2022-12-11T16:19:41.127Z,1.64
2022-12-11T16:22:09.137Z,1.64
2022-12-11T16:24:36.191Z,1.63
2022-12-11T16:27:03.650Z,1.60
2022-12-11T16:29:35.166Z,1.61
2022-12-11T16:32:01.644Z,1.60
2022-12-11T16:34:28.847Z,1.63
2022-12-11T16:36:57.995Z,1.65
2022-12-11T16:39:24.961Z,1.65
2022-12-11T16:41:51.507Z,1.65
2022-12-11T16:44:24.608Z,1.67
2022-12-11T16:46:51.330Z,1.65
2022-12-11T16:49:18.266Z,1.62
2022-12-11T16:51:44.790Z,1.60
2022-12-11T16:54:11.944Z,1.61
2022-12-11T16:56:38.932Z,1.61
2022-12-11T16:59:05.507Z,1.59
2022-12-11T17:01:32.243Z,1.59
2022-12-11T17:03:59.291Z,1.62
2022-12-11T17:06:25.878Z,1.65
2022-12-11T17:08:52.611Z,1.69
2022-12-11T17:11:22.188Z,1.69
2022-12-11T17:13:54.679Z,1.67
2022-12-11T17:16:22.420Z,1.64
2022-12-11T17:18:49.029Z,1.62
2022-12-11T17:21:18.163Z,1.62
2022-12-11T17:23:45.005Z,1.61
2022-12-11T17:26:11.980Z,1.60
2022-12-11T17:28:39.964Z,1.58
2022-12-11T17:31:16.491Z,1.58
2022-12-11T17:33:46.779Z,1.58
2022-12-11T17:36:20.091Z,1.55
2022-12-11T17:38:49.447Z,1.53
2022-12-11T17:41:20.534Z,1.51
2022-12-11T17:43:48.924Z,1.52
2022-12-11T17:46:18.307Z,1.53
2022-12-11T17:48:45.175Z,1.50
2022-12-11T17:51:13.830Z,1.48
2022-12-11T17:53:40.496Z,1.48
2022-12-11T17:56:08.445Z,1.47
2022-12-11T17:58:35.475Z,1.45
2022-12-11T18:01:07.200Z,1.44
2022-12-11T18:03:33.665Z,1.42
2022-12-11T18:06:05.097Z,1.44
2022-12-11T18:08:32.040Z,1.46
2022-12-11T18:11:09.374Z,1.45
2022-12-11T18:13:36.224Z,1.46
2022-12-11T18:16:10.615Z,1.49
2022-12-11T18:18:38.485Z,1.52
2022-12-11T18:21:05.343Z,1.50
2022-12-11T18:23:32.168Z,1.49
2022-12-11T18:25:58.631Z,1.45
2022-12-11T18:28:25.327Z,1.44
2022-12-11T18:30:51.870Z,1.42
2022-12-11T18:33:18.376Z,1.42
2022-12-11T18:35:44.878Z,1.42
2022-12-11T18:38:12.175Z,1.45
2022-12-11T18:40:38.806Z,1.42
2022-12-11T18:43:05.226Z,1.39
2022-12-11T18:45:31.955Z,1.38
2022-12-11T18:47:58.811Z,1.39
2022-12-11T18:50:25.379Z,1.39
2022-12-11T18:52:55.710Z,1.37
2022-12-11T18:55:22.309Z,1.35
2022-12-11T18:57:48.880Z,1.31
2022-12-11T19:00:16.787Z,1.30
2022-12-11T19:02:46.246Z,1.25
2022-12-11T19:05:13.028Z,1.24
2022-12-11T19:07:39.900Z,1.23
2022-12-11T19:10:06.952Z,1.24
2022-12-11T19:12:34.166Z,1.20
2022-12-11T19:15:00.616Z,1.19
2022-12-11T19:17:27.386Z,1.17
2022-12-11T19:19:54.007Z,1.20
2022-12-11T19:22:20.432Z,1.17
2022-12-11T19:24:46.916Z,1.17
2022-12-11T19:27:14.074Z,1.16
2022-12-11T19:29:41.282Z,1.13
2022-12-11T19:32:07.694Z,1.11
2022-12-11T19:34:34.200Z,1.09
2022-12-11T19:37:00.632Z,1.08
2022-12-11T19:39:27.176Z,1.08
2022-12-11T19:41:53.654Z,1.09
2022-12-11T19:44:20.159Z,1.09
2022-12-11T19:46:46.803Z,1.07
2022-12-11T19:49:13.357Z,1.03
2022-12-11T19:51:41.579Z,1.05
2022-12-11T19:54:11.608Z,1.08
2022-12-11T19:56:41.109Z,1.10
2022-12-11T19:59:11.568Z,1.11
2022-12-11T20:01:38.533Z,1.11
2022-12-11T20:04:08.327Z,1.09
2022-12-11T20:06:36.321Z,1.08
2022-12-11T20:09:05.308Z,1.05
2022-12-11T20:11:33.003Z,1.07
2022-12-11T20:13:59.989Z,1.06
2022-12-11T20:16:46.223Z,1.06
2022-12-11T20:19:13.086Z,1.09
2022-12-11T20:21:39.563Z,1.08
2022-12-11T20:24:06.278Z,1.10
2022-12-11T20:26:35.917Z,1.12
2022-12-11T20:29:05.293Z,1.11
2022-12-11T20:31:33.059Z,1.09
2022-12-11T20:33:59.633Z,1.09
2022-12-11T20:36:27.222Z,1.10
2022-12-11T20:38:53.809Z,1.10
2022-12-11T20:41:22.885Z,1.11
2022-12-11T20:43:49.782Z,1.06
2022-12-11T20:46:18.441Z,1.05
2022-12-11T20:48:45.738Z,1.03
2022-12-11T20:51:14.285Z,1.06
2022-12-11T20:53:41.561Z,1.05
2022-12-11T20:56:14.156Z,1.09
2022-12-11T20:58:41.186Z,1.09
2022-12-11T21:01:12.890Z,1.05
2022-12-11T21:03:42.181Z,1.06
2022-12-11T21:06:17.360Z,1.06
2022-12-11T21:08:43.937Z,1.06
2022-12-11T21:11:10.523Z,1.05
2022-12-11T21:13:37.323Z,1.06
2022-12-11T21:16:08.085Z,1.07
2022-12-11T21:18:34.733Z,1.07
2022-12-11T21:21:01.223Z,1.06
2022-12-11T21:23:27.689Z,1.07
2022-12-11T21:25:54.324Z,1.03
2022-12-11T21:28:21.987Z,1.01
2022-12-11T21:30:54.788Z,1.02
2022-12-11T21:33:21.244Z,1.05
2022-12-11T21:35:56.276Z,1.08
2022-12-11T21:38:23.236Z,1.11
2022-12-11T21:40:50.883Z,1.09
2022-12-11T21:43:17.364Z,1.09
2022-12-11T21:46:01.406Z,1.09
2022-12-11T21:48:29.033Z,1.10
2022-12-11T21:51:37.730Z,1.13
2022-12-11T21:54:06.745Z,1.12
2022-12-11T21:56:33.626Z,1.10
2022-12-11T21:59:01.701Z,1.07
2022-12-11T22:01:33.292Z,1.02
2022-12-11T22:03:59.856Z,0.99
2022-12-11T22:06:26.643Z,0.99
2022-12-11T22:08:53.361Z,0.94
2022-12-11T22:11:22.835Z,0.94
2022-12-11T22:13:49.867Z,0.94
2022-12-11T22:16:16.457Z,0.96
2022-12-11T22:18:43.587Z,0.96
2022-12-11T22:21:10.336Z,0.97
2022-12-11T22:23:40.914Z,0.96
2022-12-11T22:26:08.758Z,0.94
2022-12-11T22:28:35.501Z,0.92
2022-12-11T22:31:02.046Z,0.89
2022-12-11T22:33:28.537Z,0.87
2022-12-11T22:35:58.523Z,0.86
2022-12-11T22:38:25.711Z,0.85
2022-12-11T22:40:53.280Z,0.86
2022-12-11T22:43:20.196Z,0.89
2022-12-11T22:45:46.724Z,0.90
2022-12-11T22:48:13.251Z,0.89
2022-12-11T22:50:40.044Z,0.87
2022-12-11T22:53:07.742Z,0.89
2022-12-11T22:55:34.566Z,0.89
2022-12-11T22:58:01.088Z,0.85
2022-12-11T23:00:27.545Z,0.85
2022-12-11T23:02:54.078Z,0.84
2022-12-11T23:05:20.645Z,0.82
2022-12-11T23:07:47.331Z,0.82
2022-12-11T23:10:13.887Z,0.80
2022-12-11T23:12:40.544Z,0.83
2022-12-11T23:15:07.963Z,0.86
2022-12-11T23:17:34.604Z,0.83
2022-12-11T23:20:03.644Z,0.81
2022-12-11T23:22:30.568Z,0.81
2022-12-11T23:24:57.014Z,0.81
2022-12-11T23:27:23.792Z,0.81
2022-12-11T23:29:50.215Z,0.82
2022-12-11T23:32:16.655Z,0.82
2022-12-11T23:34:43.156Z,0.83
2022-12-11T23:37:10.158Z,0.85
2022-12-11T23:39:36.656Z,0.87
2022-12-11T23:42:03.169Z,0.89
2022-12-11T23:44:29.619Z,0.89
2022-12-11T23:46:56.048Z,0.90
2022-12-11T23:49:22.524Z,0.89
2022-12-11T23:51:48.994Z,0.88
2022-12-11T23:54:15.428Z,0.88
2022-12-11T23:56:41.972Z,0.88
2022-12-11T23:59:13.075Z,0.89
